Time;durP1;ratioP1;P1;durP2;ratioP2;P2;SDS_P1;SDS_P2;PMS_P1;PMS_P2;Temp;Humidity;BMP_temperature;BMP_pressure;BME280_temperature;BME280_humidity;BME280_pressure;Samples;Min_cycle;Max_cycle;Signal;HPM_P1;HPM_P2
2022/01/18 00:00:56;;;;;;;16.65;6.57;;;9.80;78.20;;;;;;4984428;28;20073;-52
2022/01/18 00:03:23;;;;;;;18.13;6.68;;;9.80;78.20;;;;;;4986801;28;20494;-49
2022/01/18 00:05:50;;;;;;;20.90;6.88;;;9.80;78.10;;;;;;4984706;28;20722;-53
2022/01/18 00:08:20;;;;;;;19.58;7.05;;;9.90;78.10;;;;;;4974298;28;20094;-53
2022/01/18 00:10:48;;;;;;;17.95;6.40;;;9.90;78.10;;;;;;4973727;28;20086;-55
2022/01/18 00:18:20;;;;;;;16.95;6.40;;;9.90;78.00;;;;;;4986826;28;20066;-50
2022/01/18 00:23:41;;;;;;;19.60;6.32;;;10.00;77.90;;;;;;4986992;28;20078;-53
2022/01/18 00:26:09;;;;;;;17.17;7.32;;;10.00;77.80;;;;;;4966862;28;20077;-51
2022/01/18 00:28:37;;;;;;;14.63;6.65;;;10.00;78.30;;;;;;4981233;28;20437;-53
2022/01/18 00:34:05;;;;;;;22.70;7.57;;;10.10;77.70;;;;;;4956846;28;20047;-51
2022/01/18 00:39:07;;;;;;;22.25;7.18;;;10.00;77.60;;;;;;5001554;23;20441;-45
2022/01/18 00:41:35;;;;;;;19.60;7.30;;;10.00;77.60;;;;;;4991950;28;20039;-45
2022/01/18 00:44:05;;;;;;;14.68;6.97;;;10.00;77.60;;;;;;4991497;28;20456;-46
2022/01/18 00:46:33;;;;;;;19.20;7.68;;;10.00;77.70;;;;;;4994137;28;20046;-46
2022/01/18 00:49:01;;;;;;;17.95;6.93;;;10.00;77.60;;;;;;5001717;28;20096;-45
2022/01/18 00:51:36;;;;;;;16.67;6.95;;;10.00;77.60;;;;;;5007675;28;20506;-48
2022/01/18 00:54:09;;;;;;;23.88;6.82;;;10.00;77.70;;;;;;5003161;28;20054;-47
2022/01/18 00:56:40;;;;;;;22.00;7.80;;;10.00;77.60;;;;;;5002029;28;20042;-48
2022/01/18 00:59:07;;;;;;;19.60;6.68;;;10.00;77.70;;;;;;5008095;28;20046;-46
2022/01/18 01:01:36;;;;;;;22.45;6.63;;;10.00;77.70;;;;;;5004831;28;20049;-47
2022/01/18 01:04:04;;;;;;;16.83;6.43;;;10.00;77.70;;;;;;4999142;28;20042;-47
2022/01/18 01:06:32;;;;;;;22.33;7.38;;;10.00;77.70;;;;;;4993495;28;20071;-46
2022/01/18 01:08:59;;;;;;;13.93;6.80;;;10.00;77.70;;;;;;4999189;28;20043;-46
2022/01/18 01:11:27;;;;;;;19.58;6.50;;;10.00;77.60;;;;;;4995793;28;20042;-45
2022/01/18 01:13:59;;;;;;;21.00;8.13;;;10.10;77.60;;;;;;4990490;28;20070;-46
2022/01/18 01:16:48;;;;;;;17.38;6.57;;;10.10;77.70;;;;;;4991535;28;20101;-45
2022/01/18 01:43:36;;;;;;;16.10;6.15;;;10.20;77.30;;;;;;4997149;28;20041;-46
2022/01/18 01:46:04;;;;;;;14.90;6.30;;;10.20;77.30;;;;;;5002806;28;20050;-47
2022/01/18 01:48:33;;;;;;;12.40;6.63;;;10.20;77.20;;;;;;5010615;28;20068;-46
2022/01/18 01:51:04;;;;;;;15.15;5.97;;;10.20;77.10;;;;;;5003364;28;20387;-45
2022/01/18 01:53:34;;;;;;;11.23;5.33;;;10.20;77.10;;;;;;5000044;28;20054;-46
2022/01/18 01:56:02;;;;;;;15.90;5.45;;;10.20;76.90;;;;;;5010218;28;20284;-47
2022/01/18 01:58:29;;;;;;;13.02;5.53;;;10.20;76.90;;;;;;4996822;28;20109;-45
2022/01/18 02:01:03;;;;;;;17.65;5.90;;;10.20;77.20;;;;;;5004527;28;20054;-46
2022/01/18 02:03:30;;;;;;;18.95;6.30;;;10.20;76.90;;;;;;5002338;28;20046;-50
2022/01/18 02:05:57;;;;;;;20.70;6.25;;;10.20;77.00;;;;;;4998423;28;20042;-50
2022/01/18 02:08:24;;;;;;;17.48;6.40;;;10.10;76.80;;;;;;4993908;28;20115;-46
2022/01/18 02:10:51;;;;;;;14.75;6.57;;;10.10;76.90;;;;;;4992436;28;20047;-47
2022/01/18 02:13:17;;;;;;;20.17;6.75;;;10.10;77.50;;;;;;5002215;28;20062;-45
2022/01/18 02:24:09;;;;;;;24.88;7.68;;;10.10;76.90;;;;;;4999821;28;20576;-47
2022/01/18 02:26:36;;;;;;;19.38;7.47;;;10.10;77.00;;;;;;4995069;28;20045;-50
2022/01/18 02:29:06;;;;;;;16.55;6.97;;;10.10;77.00;;;;;;5001743;28;20046;-45
2022/01/18 02:31:33;;;;;;;13.55;5.90;;;10.10;77.00;;;;;;5002068;28;20041;-46
2022/01/18 02:34:10;;;;;;;16.33;6.25;;;10.10;77.10;;;;;;4991144;28;20105;-50
2022/01/18 02:36:38;;;;;;;16.98;6.65;;;10.10;77.00;;;;;;4997653;28;20058;-46
2022/01/18 02:39:08;;;;;;;15.60;6.55;;;10.10;77.00;;;;;;4998725;28;20092;-50
2022/01/18 02:41:35;;;;;;;18.63;7.40;;;10.10;77.00;;;;;;5002864;28;20096;-49
2022/01/18 02:44:04;;;;;;;20.25;7.85;;;10.10;77.00;;;;;;5008419;28;20101;-50
2022/01/18 02:46:32;;;;;;;18.85;7.25;;;10.10;77.00;;;;;;5002376;28;20423;-48
2022/01/18 02:49:01;;;;;;;21.60;7.57;;;10.00;77.10;;;;;;4999915;28;20564;-49
2022/01/18 02:51:28;;;;;;;14.30;6.45;;;10.10;77.10;;;;;;5011315;28;20096;-47
2022/01/18 02:54:09;;;;;;;14.07;6.15;;;10.10;77.20;;;;;;5007969;28;20460;-46
2022/01/18 02:56:48;;;;;;;19.08;7.70;;;10.10;77.10;;;;;;4990547;28;20513;-49
2022/01/18 02:59:24;;;;;;;17.90;6.45;;;10.10;77.20;;;;;;4998336;28;20038;-48
2022/01/18 03:04:42;;;;;;;21.88;7.75;;;10.10;77.00;;;;;;5006442;28;20085;-46
2022/01/18 03:07:10;;;;;;;17.75;7.55;;;10.10;77.00;;;;;;4993593;28;20037;-46
2022/01/18 03:09:36;;;;;;;17.13;6.45;;;10.10;77.10;;;;;;5000938;28;20096;-47
2022/01/18 03:12:05;;;;;;;18.15;7.38;;;10.10;77.10;;;;;;5007255;28;20577;-49
2022/01/18 03:14:35;;;;;;;21.50;7.70;;;10.10;77.20;;;;;;5004702;28;20096;-47
2022/01/18 03:17:02;;;;;;;24.02;9.05;;;10.10;77.10;;;;;;5003396;28;20077;-46
2022/01/18 03:19:29;;;;;;;18.23;7.20;;;10.10;77.00;;;;;;5004572;28;20552;-46
2022/01/18 03:21:58;;;;;;;19.38;8.00;;;10.10;77.10;;;;;;5005039;28;20042;-46
2022/01/18 03:29:38;;;;;;;20.17;8.05;;;10.10;77.20;;;;;;5010010;28;20053;-48
2022/01/18 03:32:06;;;;;;;22.88;8.52;;;10.10;77.20;;;;;;4997444;28;20125;-46
2022/01/18 03:34:33;;;;;;;23.63;7.75;;;10.10;77.10;;;;;;4999629;28;20754;-46
2022/01/18 03:37:00;;;;;;;18.80;7.93;;;10.10;77.10;;;;;;4998473;28;20046;-50
2022/01/18 03:39:27;;;;;;;17.05;8.68;;;10.10;77.20;;;;;;5009847;28;20081;-45
2022/01/18 03:41:58;;;;;;;13.90;7.38;;;10.10;77.20;;;;;;5001794;28;20050;-47
2022/01/18 03:44:26;;;;;;;19.40;7.82;;;10.10;77.20;;;;;;5000155;28;20069;-47
2022/01/18 03:46:53;;;;;;;17.42;8.15;;;10.10;77.20;;;;;;5005574;28;20108;-46
2022/01/18 03:49:23;;;;;;;23.45;8.10;;;10.10;77.10;;;;;;5004445;28;20072;-47
2022/01/18 03:51:50;;;;;;;16.90;6.60;;;10.10;77.20;;;;;;4998104;28;20042;-47
2022/01/18 03:54:22;;;;;;;16.65;7.47;;;10.10;77.20;;;;;;4997870;28;20050;-46
2022/01/18 03:56:49;;;;;;;16.85;7.88;;;10.10;77.10;;;;;;5001919;28;20053;-49
2022/01/18 03:59:16;;;;;;;19.90;8.10;;;10.10;77.10;;;;;;5008888;28;20128;-47
2022/01/18 04:01:43;;;;;;;16.25;7.68;;;10.10;77.10;;;;;;5001657;28;20100;-47
2022/01/18 04:04:10;;;;;;;17.83;6.90;;;10.10;77.00;;;;;;5000403;28;20034;-47
2022/01/18 04:06:37;;;;;;;17.63;7.18;;;10.20;77.10;;;;;;4990814;28;20050;-48
2022/01/18 04:09:04;;;;;;;16.65;8.05;;;10.10;77.00;;;;;;4992942;28;20046;-48
2022/01/18 04:11:31;;;;;;;22.45;10.55;;;10.10;77.00;;;;;;4995388;28;20371;-47
2022/01/18 04:13:57;;;;;;;16.90;8.00;;;10.10;77.10;;;;;;4994841;28;20078;-47
2022/01/18 04:16:24;;;;;;;22.55;8.65;;;10.10;77.00;;;;;;5003607;28;20050;-46
2022/01/18 04:19:33;;;;;;;16.05;7.85;;;10.10;77.00;;;;;;5007692;28;20034;-49
2022/01/18 04:27:15;;;;;;;13.52;6.90;;;10.20;77.00;;;;;;4968434;28;20046;-46
2022/01/18 04:29:42;;;;;;;15.38;7.47;;;10.20;77.00;;;;;;4996876;28;20076;-47
2022/01/18 04:32:11;;;;;;;13.23;7.05;;;10.20;77.00;;;;;;5004277;28;20084;-47
2022/01/18 04:34:40;;;;;;;22.95;9.88;;;10.20;76.90;;;;;;4994476;28;20043;-46
2022/01/18 04:37:07;;;;;;;27.17;8.82;;;10.20;77.00;;;;;;4992786;28;20045;-46
2022/01/18 04:39:38;;;;;;;17.10;7.60;;;10.10;77.00;;;;;;5006350;28;20221;-49
2022/01/18 04:42:15;;;;;;;20.52;8.32;;;10.10;77.00;;;;;;5005706;28;20459;-48
2022/01/18 04:50:12;;;;;;;19.67;8.80;;;10.10;76.90;;;;;;4991717;28;20039;-47
2022/01/18 04:52:39;;;;;;;23.08;8.73;;;10.20;77.00;;;;;;4993743;28;20048;-49
2022/01/18 04:55:06;;;;;;;16.00;9.40;;;10.10;77.00;;;;;;4992174;28;20046;-46
2022/01/18 04:57:52;;;;;;;24.38;11.35;;;10.10;77.00;;;;;;4995190;28;20077;-47
2022/01/18 05:00:24;;;;;;;21.35;9.77;;;10.10;77.00;;;;;;4998366;28;20050;-49
2022/01/18 05:02:51;;;;;;;;;;;10.10;77.00;;;;;;4996503;28;20050;-48
2022/01/18 05:05:29;;;;;;;17.90;8.25;;;10.20;77.10;;;;;;4992486;28;20323;-47
2022/01/18 05:08:02;;;;;;;15.55;8.23;;;10.10;76.80;;;;;;4999120;28;20078;-49
2022/01/18 05:10:30;;;;;;;19.55;9.07;;;10.10;76.80;;;;;;5000769;28;20498;-47
2022/01/18 05:13:10;;;;;;;26.40;9.23;;;10.10;76.90;;;;;;5010549;28;20104;-48
2022/01/18 05:15:44;;;;;;;21.75;9.52;;;10.10;77.00;;;;;;5003821;28;20046;-50
2022/01/18 05:23:25;;;;;;;23.80;9.45;;;10.00;76.80;;;;;;5009589;28;20053;-49
2022/01/18 05:25:52;;;;;;;23.48;9.60;;;10.00;76.80;;;;;;4995666;28;20522;-48
2022/01/18 05:28:19;;;;;;;21.50;9.75;;;10.00;76.90;;;;;;4986443;28;20050;-50
2022/01/18 05:30:46;;;;;;;21.75;9.25;;;9.90;76.90;;;;;;4985859;28;20076;-45
2022/01/18 05:33:14;;;;;;;18.55;8.68;;;9.90;77.00;;;;;;4983365;28;20038;-50
2022/01/18 05:35:40;;;;;;;20.40;10.52;;;9.90;77.40;;;;;;4982223;28;20085;-46
2022/01/18 05:38:08;;;;;;;23.05;8.98;;;9.90;77.20;;;;;;4987846;28;20108;-49
2022/01/18 05:40:34;;;;;;;19.15;8.82;;;9.90;77.30;;;;;;4978625;28;20043;-45
2022/01/18 05:43:01;;;;;;;20.67;9.77;;;9.80;77.40;;;;;;4993941;28;20043;-44
2022/01/18 05:45:28;;;;;;;24.25;10.15;;;9.80;77.40;;;;;;4992436;28;20041;-48
2022/01/18 05:47:55;;;;;;;24.23;10.90;;;9.80;77.50;;;;;;4997898;28;20046;-48
2022/01/18 05:50:22;;;;;;;19.85;10.73;;;9.80;77.60;;;;;;4990253;28;20039;-46
2022/01/18 05:52:51;;;;;;;23.00;9.82;;;9.80;77.60;;;;;;4992277;28;20510;-46
2022/01/18 05:55:18;;;;;;;20.75;10.45;;;9.80;77.60;;;;;;4997848;28;20103;-49
2022/01/18 05:57:44;;;;;;;19.27;9.57;;;9.80;77.60;;;;;;4999326;28;20458;-50
2022/01/18 06:00:21;;;;;;;24.27;9.88;;;9.80;77.50;;;;;;5010242;28;20092;-47
2022/01/18 06:03:01;;;;;;;20.90;10.95;;;9.80;77.50;;;;;;5001919;28;20073;-46
2022/01/18 06:08:16;;;;;;;24.50;10.23;;;9.70;77.40;;;;;;4986265;28;20050;-45
2022/01/18 06:10:42;;;;;;;24.55;11.57;;;9.70;77.50;;;;;;5006482;28;20433;-45
2022/01/18 06:13:09;;;;;;;27.13;10.85;;;9.70;77.60;;;;;;4986006;28;20536;-51
2022/01/18 06:15:36;;;;;;;27.42;10.90;;;9.70;77.60;;;;;;4983643;28;20038;-51
2022/01/18 06:18:03;;;;;;;20.25;11.05;;;9.70;77.60;;;;;;4999832;28;20461;-52
2022/01/18 06:20:30;;;;;;;19.25;10.70;;;9.70;77.60;;;;;;5007339;28;20074;-51
2022/01/18 06:22:57;;;;;;;22.80;10.18;;;9.70;77.60;;;;;;4993942;28;20077;-53
2022/01/18 06:25:28;;;;;;;30.25;12.00;;;9.70;77.70;;;;;;4997418;28;20046;-51
2022/01/18 06:27:55;;;;;;;26.40;11.23;;;9.70;77.70;;;;;;5007356;28;20037;-50
2022/01/18 06:30:22;;;;;;;19.77;11.15;;;9.70;77.70;;;;;;5002017;28;20049;-54
2022/01/18 06:32:48;;;;;;;23.95;11.00;;;9.70;77.70;;;;;;5004303;28;20417;-53
2022/01/18 06:35:17;;;;;;;22.63;10.55;;;9.70;77.70;;;;;;4996719;28;20670;-52
2022/01/18 06:37:45;;;;;;;21.70;11.00;;;9.80;77.80;;;;;;4990793;28;21001;-52
2022/01/18 06:40:13;;;;;;;21.27;10.75;;;9.70;77.80;;;;;;4997580;28;20042;-52
2022/01/18 06:42:40;;;;;;;18.20;11.85;;;9.70;77.90;;;;;;4994987;28;20106;-51
2022/01/18 06:45:09;;;;;;;25.50;12.93;;;9.70;77.90;;;;;;4998396;28;20054;-50
2022/01/18 06:47:38;;;;;;;24.27;14.13;;;9.70;77.80;;;;;;4996186;28;20072;-50
2022/01/18 06:50:06;;;;;;;30.85;13.48;;;9.70;77.80;;;;;;4996665;28;20046;-51
2022/01/18 06:52:33;;;;;;;25.27;13.23;;;9.70;77.80;;;;;;4997012;28;20065;-55
2022/01/18 06:55:01;;;;;;;25.85;13.55;;;9.70;77.80;;;;;;5007699;28;20054;-54
2022/01/18 06:57:28;;;;;;;24.60;11.93;;;9.70;77.80;;;;;;4990711;28;20191;-54
2022/01/18 06:59:55;;;;;;;26.73;12.32;;;9.80;77.80;;;;;;4993384;28;20074;-54
2022/01/18 07:02:22;;;;;;;27.58;12.50;;;9.80;77.90;;;;;;5003329;28;20526;-54
2022/01/18 07:04:49;;;;;;;21.90;11.38;;;9.80;77.70;;;;;;5001559;28;20502;-55
2022/01/18 07:07:17;;;;;;;19.00;11.20;;;9.80;77.70;;;;;;4983601;28;20050;-54
2022/01/18 07:09:44;;;;;;;21.63;10.70;;;9.80;78.30;;;;;;4996813;28;20038;-53
2022/01/18 07:12:12;;;;;;;18.35;11.25;;;9.80;77.70;;;;;;5000873;28;20104;-55
2022/01/18 07:14:40;;;;;;;19.02;10.55;;;9.80;77.70;;;;;;5004403;28;20101;-55
2022/01/18 07:17:08;;;;;;;20.58;11.20;;;9.70;77.70;;;;;;4988907;28;20054;-53
2022/01/18 07:19:36;;;;;;;19.45;10.15;;;9.80;77.90;;;;;;5000104;28;20057;-54
2022/01/18 07:22:03;;;;;;;20.17;11.13;;;9.80;77.80;;;;;;4996549;28;20061;-51
2022/01/18 07:24:38;;;;;;;21.13;9.90;;;9.80;77.80;;;;;;4996523;28;20077;-54
2022/01/18 07:27:07;;;;;;;23.88;11.02;;;9.70;77.70;;;;;;4990548;28;20042;-53
2022/01/18 07:29:35;;;;;;;18.73;10.57;;;9.80;77.70;;;;;;4986414;28;20133;-52
2022/01/18 07:32:02;;;;;;;16.80;9.75;;;9.80;77.70;;;;;;4982676;28;20039;-54
2022/01/18 07:34:31;;;;;;;17.25;9.50;;;9.80;77.70;;;;;;4979833;28;20050;-54
2022/01/18 07:36:58;;;;;;;18.63;9.80;;;9.80;77.50;;;;;;4994112;28;20046;-51
2022/01/18 07:39:25;;;;;;;14.30;8.52;;;9.70;77.30;;;;;;5003124;22;20093;-76
2022/01/18 07:41:52;;;;;;;14.57;8.57;;;9.70;77.10;;;;;;4971787;28;20513;-75
2022/01/18 07:44:19;;;;;;;13.23;7.97;;;9.70;76.90;;;;;;4964144;28;20076;-76
2022/01/18 07:46:46;;;;;;;12.32;7.93;;;9.70;76.90;;;;;;4968555;28;20051;-75
2022/01/18 07:49:13;;;;;;;13.40;7.68;;;9.70;76.90;;;;;;4958880;28;20039;-75
2022/01/18 07:51:40;;;;;;;15.95;10.00;;;9.70;76.90;;;;;;4966533;28;20411;-76
2022/01/18 07:54:08;;;;;;;20.73;10.50;;;9.60;77.00;;;;;;4975587;28;20050;-75
2022/01/18 07:56:34;;;;;;;11.85;8.38;;;9.60;77.20;;;;;;4957150;28;20062;-76
2022/01/18 07:59:12;;;;;;;13.27;8.18;;;9.60;77.20;;;;;;4976819;28;20626;-76
2022/01/18 08:01:39;;;;;;;18.13;10.10;;;9.60;77.40;;;;;;4984716;28;20053;-75
2022/01/18 08:04:06;;;;;;;16.90;10.60;;;9.60;77.50;;;;;;4985509;28;20569;-75
2022/01/18 08:06:33;;;;;;;17.58;11.18;;;9.60;77.70;;;;;;4959496;28;20086;-76
2022/01/18 08:09:00;;;;;;;22.17;12.52;;;9.60;77.70;;;;;;5001925;28;20514;-76
2022/01/18 08:11:27;;;;;;;29.92;13.32;;;9.60;77.70;;;;;;4967778;28;20125;-76
2022/01/18 08:13:54;;;;;;;19.83;12.55;;;9.60;77.70;;;;;;4968112;28;20039;-75
2022/01/18 08:18:56;;;;;;;22.27;11.68;;;9.70;77.90;;;;;;4974214;28;20431;-76
2022/01/18 08:21:24;;;;;;;22.60;12.10;;;9.70;77.90;;;;;;4971849;28;20042;-76
2022/01/18 08:23:51;;;;;;;29.08;12.63;;;9.70;77.90;;;;;;4966737;28;20563;-75
2022/01/18 08:26:18;;;;;;;22.20;12.07;;;9.70;77.90;;;;;;4981880;28;20502;-76
2022/01/18 08:28:46;;;;;;;22.52;12.18;;;9.70;77.90;;;;;;4983188;28;20042;-76
2022/01/18 08:31:13;;;;;;;18.73;10.93;;;9.80;77.90;;;;;;4975152;28;20047;-76
2022/01/18 08:33:40;;;;;;;18.35;11.13;;;9.80;78.00;;;;;;4974089;28;20534;-75
2022/01/18 08:36:07;;;;;;;18.58;11.38;;;9.80;77.90;;;;;;4981480;28;20503;-76
2022/01/18 08:38:35;;;;;;;17.67;11.50;;;9.80;78.00;;;;;;4992930;28;20042;-76
2022/01/18 08:41:04;;;;;;;17.88;11.07;;;9.80;78.00;;;;;;4985563;28;20049;-75
2022/01/18 08:43:32;;;;;;;19.48;12.32;;;9.80;78.10;;;;;;4959468;28;20042;-76
2022/01/18 08:46:00;;;;;;;16.88;12.25;;;9.90;78.30;;;;;;4974446;28;20045;-76
2022/01/18 08:48:27;;;;;;;19.13;11.65;;;9.90;78.20;;;;;;4990160;28;20038;-76
2022/01/18 08:50:55;;;;;;;17.45;10.57;;;9.90;78.20;;;;;;4971810;28;20050;-76
2022/01/18 08:53:22;;;;;;;18.40;10.77;;;10.00;78.30;;;;;;4985154;28;20482;-76
2022/01/18 08:55:48;;;;;;;22.83;11.23;;;10.00;78.30;;;;;;4998068;28;20349;-76
2022/01/18 08:58:15;;;;;;;16.10;10.43;;;10.00;78.20;;;;;;4957000;28;20051;-76
2022/01/18 09:00:42;;;;;;;14.57;10.10;;;10.10;78.20;;;;;;4969071;28;20063;-76
2022/01/18 09:03:10;;;;;;;16.55;10.20;;;10.20;78.10;;;;;;4979846;28;20573;-76
2022/01/18 09:05:38;;;;;;;16.83;10.10;;;10.30;78.20;;;;;;4977582;28;20463;-76
2022/01/18 09:08:11;;;;;;;17.17;10.82;;;10.30;78.10;;;;;;4979812;23;20050;-51
2022/01/18 09:10:40;;;;;;;21.30;10.80;;;10.20;77.80;;;;;;4970915;28;20043;-51
2022/01/18 09:13:07;;;;;;;17.83;10.95;;;10.20;77.80;;;;;;4976166;28;20039;-54
2022/01/18 09:15:34;;;;;;;20.45;11.45;;;10.20;77.70;;;;;;4986778;28;20576;-53
2022/01/18 09:18:01;;;;;;;18.85;11.48;;;10.20;77.60;;;;;;4992447;28;20047;-56
2022/01/18 09:20:28;;;;;;;17.45;10.63;;;10.20;77.70;;;;;;4977854;28;20038;-55
2022/01/18 09:22:54;;;;;;;23.10;11.68;;;10.20;77.80;;;;;;4991564;28;20457;-54
2022/01/18 09:25:25;;;;;;;22.15;12.32;;;10.30;77.90;;;;;;4991486;28;20486;-54
2022/01/18 09:27:53;;;;;;;23.13;11.27;;;10.30;78.00;;;;;;4981746;28;20047;-55
2022/01/18 09:30:21;;;;;;;21.27;11.52;;;10.30;78.00;;;;;;4976804;28;20505;-54
2022/01/18 09:32:49;;;;;;;24.98;11.23;;;10.40;78.20;;;;;;4991593;28;20461;-55
2022/01/18 09:35:16;;;;;;;25.45;11.88;;;10.40;78.20;;;;;;4980513;28;20319;-55
2022/01/18 09:37:44;;;;;;;19.40;11.05;;;10.40;78.20;;;;;;4969111;28;20039;-54
2022/01/18 09:40:14;;;;;;;26.98;11.52;;;10.50;78.30;;;;;;4972314;28;20038;-52
2022/01/18 09:42:43;;;;;;;20.48;11.23;;;10.60;78.10;;;;;;4988606;28;20046;-54
2022/01/18 09:45:13;;;;;;;19.17;10.75;;;10.60;78.00;;;;;;4977040;28;20105;-54
2022/01/18 09:47:42;;;;;;;21.25;11.90;;;10.60;77.80;;;;;;4975073;28;20102;-54
2022/01/18 09:50:12;;;;;;;18.15;10.25;;;10.70;77.90;;;;;;4974970;28;20576;-54
2022/01/18 09:52:39;;;;;;;17.65;10.70;;;10.80;77.90;;;;;;4968643;28;20097;-52
2022/01/18 09:55:07;;;;;;;17.08;9.95;;;10.80;77.70;;;;;;4962829;28;20039;-55
2022/01/18 09:57:35;;;;;;;16.48;9.68;;;10.90;77.70;;;;;;4967446;28;20537;-55
2022/01/18 10:00:05;;;;;;;17.17;9.90;;;11.00;77.60;;;;;;4972229;28;20054;-55
2022/01/18 10:02:38;;;;;;;21.10;9.27;;;11.00;77.30;;;;;;4968441;28;20057;-56
2022/01/18 10:05:38;;;;;;;18.27;9.07;;;11.00;77.20;;;;;;4973199;28;20426;-55
2022/01/18 10:08:08;;;;;;;18.95;9.70;;;11.10;77.00;;;;;;4951872;28;20720;-55
2022/01/18 10:10:42;;;;;;;19.85;9.93;;;11.10;76.80;;;;;;4969434;28;20043;-54
2022/01/18 10:13:18;;;;;;;22.65;9.43;;;11.20;76.60;;;;;;4968331;28;20562;-55
2022/01/18 10:16:00;;;;;;;17.33;10.13;;;11.20;76.70;;;;;;4969652;28;20043;-52
2022/01/18 10:19:05;;;;;;;14.13;9.00;;;11.20;76.80;;;;;;4972897;28;20058;-55
2022/01/18 10:21:35;;;;;;;19.83;8.25;;;11.20;76.00;;;;;;4924213;29;20095;-55
2022/01/18 10:24:25;;;;;;;17.42;9.60;;;11.20;76.40;;;;;;4974943;28;20060;-55
2022/01/18 10:26:55;;;;;;;17.85;9.30;;;11.20;76.30;;;;;;4967973;28;20079;-55
2022/01/18 10:29:44;;;;;;;18.40;9.35;;;11.20;76.70;;;;;;4968164;28;20047;-52
2022/01/18 10:32:19;;;;;;;16.50;8.52;;;11.30;76.60;;;;;;4968490;28;20046;-51
2022/01/18 10:37:26;;;;;;;16.98;9.18;;;11.40;76.80;;;;;;4982571;28;20050;-53
2022/01/18 10:39:55;;;;;;;14.32;8.35;;;11.40;76.50;;;;;;4974289;28;20450;-54
2022/01/18 10:42:36;;;;;;;18.10;8.13;;;11.50;76.20;;;;;;4976265;28;20488;-52
2022/01/18 10:45:14;;;;;;;12.88;8.25;;;11.60;76.30;;;;;;4978277;28;20039;-51
2022/01/18 10:47:50;;;;;;;20.85;7.43;;;11.60;75.60;;;;;;4982649;28;20038;-55
2022/01/18 10:50:19;;;;;;;17.95;7.75;;;11.60;75.70;;;;;;4972343;28;20495;-55
2022/01/18 10:52:46;;;;;;;17.55;7.38;;;11.70;75.80;;;;;;4967024;28;20038;-54
2022/01/18 10:55:31;;;;;;;21.08;8.15;;;11.70;75.70;;;;;;4977819;28;20089;-52
2022/01/18 10:58:10;;;;;;;18.10;7.47;;;11.80;75.20;;;;;;4979759;28;20455;-53
2022/01/18 11:00:38;;;;;;;20.35;8.57;;;11.80;75.20;;;;;;4962719;28;20622;-50
2022/01/18 11:03:06;;;;;;;17.55;7.53;;;11.90;75.40;;;;;;4984000;28;20114;-51
2022/01/18 11:05:36;;;;;;;15.80;6.80;;;11.90;75.10;;;;;;4972623;28;20130;-54
2022/01/18 11:08:05;;;;;;;19.00;7.97;;;12.00;75.00;;;;;;4980163;28;20424;-54
2022/01/18 11:10:41;;;;;;;17.98;8.60;;;12.00;74.90;;;;;;4958715;28;20055;-54
2022/01/18 11:13:34;;;;;;;15.55;7.70;;;12.10;74.80;;;;;;4974908;28;20042;-54
2022/01/18 11:16:05;;;;;;;17.55;7.60;;;12.10;74.80;;;;;;4982845;28;20556;-52
2022/01/18 11:18:36;;;;;;;20.58;8.88;;;12.20;74.60;;;;;;4985179;28;20051;-55
2022/01/18 11:21:06;;;;;;;18.85;8.07;;;12.30;74.50;;;;;;4972062;28;20047;-54
2022/01/18 11:23:34;;;;;;;15.32;7.50;;;12.30;74.10;;;;;;4969297;28;20047;-54
2022/01/18 11:26:02;;;;;;;15.05;7.78;;;12.40;73.80;;;;;;4987136;28;20049;-53
2022/01/18 11:28:31;;;;;;;23.55;8.38;;;12.40;73.60;;;;;;4989665;28;20050;-55
2022/01/18 11:30:58;;;;;;;19.55;9.32;;;12.50;73.50;;;;;;4974122;28;20042;-54
2022/01/18 11:33:27;;;;;;;14.05;7.50;;;12.50;73.20;;;;;;4983679;28;20038;-55
2022/01/18 11:36:06;;;;;;;18.92;7.93;;;12.50;73.20;;;;;;4979905;28;20098;-55
2022/01/18 11:38:36;;;;;;;13.68;7.43;;;12.60;72.80;;;;;;4967979;28;20047;-55
2022/01/18 11:41:19;;;;;;;14.60;7.82;;;12.60;73.10;;;;;;4969307;28;20042;-55
2022/01/18 11:43:46;;;;;;;14.20;7.78;;;12.60;73.10;;;;;;4965872;28;20047;-54
2022/01/18 11:46:34;;;;;;;17.75;7.88;;;12.70;73.10;;;;;;4970156;28;20057;-54
2022/01/18 11:49:22;;;;;;;23.52;9.10;;;12.70;72.30;;;;;;4962586;28;20102;-55
2022/01/18 11:51:58;;;;;;;16.83;7.55;;;12.80;71.90;;;;;;4969204;28;20038;-54
2022/01/18 11:57:22;;;;;;;15.25;7.32;;;12.90;71.30;;;;;;4961726;28;20110;-55
2022/01/18 12:00:17;;;;;;;16.98;6.18;;;12.90;71.30;;;;;;4966549;28;20510;-53
2022/01/18 12:02:47;;;;;;;12.90;6.55;;;12.90;70.70;;;;;;4968566;28;20508;-54
2022/01/18 12:05:20;;;;;;;12.70;6.28;;;12.80;70.80;;;;;;4969732;28;20384;-54
2022/01/18 12:07:50;;;;;;;13.20;7.43;;;12.80;70.90;;;;;;4964477;28;20039;-54
2022/01/18 12:10:30;;;;;;;14.40;6.47;;;12.70;70.90;;;;;;4971938;28;20516;-55
2022/01/18 12:12:59;;;;;;;13.00;6.07;;;12.60;70.50;;;;;;4980101;28;20046;-54
2022/01/18 12:15:32;;;;;;;15.10;6.43;;;12.60;70.80;;;;;;4979379;28;20599;-52
2022/01/18 12:18:01;;;;;;;14.95;6.55;;;12.50;70.70;;;;;;4965835;28;20035;-55
2022/01/18 12:20:39;;;;;;;16.20;7.90;;;12.50;70.80;;;;;;4977626;28;20043;-54
2022/01/18 12:23:08;;;;;;;15.60;7.72;;;12.50;70.40;;;;;;4973300;28;20046;-51
2022/01/18 12:25:54;;;;;;;19.45;7.82;;;12.40;70.90;;;;;;4958532;28;20042;-52
2022/01/18 12:28:45;;;;;;;15.30;7.82;;;12.40;70.60;;;;;;4969647;28;20047;-51
2022/01/18 12:32:27;;;;;;;15.93;7.85;;;12.40;70.80;;;;;;4967754;28;20046;-52
2022/01/18 12:34:38;;;;;;;17.95;7.28;;;12.40;71.10;;;;;;4959934;28;20106;-54
2022/01/18 12:37:08;;;;;;;19.97;8.03;;;12.40;71.50;;;;;;4968106;28;20098;-52
2022/01/18 12:39:50;;;;;;;13.65;6.95;;;12.40;71.60;;;;;;4968429;28;20524;-54
2022/01/18 12:44:20;;;;;;;16.60;7.20;;;12.50;71.10;;;;;;4963521;28;20080;-51
2022/01/18 12:45:42;;;;;;;12.13;5.60;;;12.50;71.70;;;;;;4964337;28;20046;-54
2022/01/18 12:48:13;;;;;;;15.15;6.50;;;12.50;71.10;;;;;;4972159;28;20055;-52
2022/01/18 12:50:42;;;;;;;13.40;6.10;;;12.50;71.40;;;;;;4966398;28;20088;-50
2022/01/18 12:53:10;;;;;;;12.10;5.40;;;12.60;71.00;;;;;;4960575;28;20388;-53
2022/01/18 12:55:44;;;;;;;14.63;5.35;;;12.60;71.00;;;;;;4964592;28;20462;-51
2022/01/18 12:58:22;;;;;;;13.60;4.97;;;12.70;70.80;;;;;;4966872;28;20081;-53
2022/01/18 13:01:11;;;;;;;13.88;4.60;;;12.70;71.10;;;;;;4986441;28;20058;-51
2022/01/18 13:03:41;;;;;;;19.70;5.25;;;12.80;70.60;;;;;;4969903;28;20035;-53
2022/01/18 13:06:18;;;;;;;13.18;5.35;;;12.90;70.20;;;;;;4968075;28;20041;-54
2022/01/18 13:08:55;;;;;;;12.73;5.18;;;13.00;69.40;;;;;;4969766;28;20039;-55
2022/01/18 13:11:34;;;;;;;14.32;5.25;;;13.00;69.30;;;;;;4984497;28;20414;-53
2022/01/18 13:14:16;;;;;;;9.60;4.78;;;13.00;68.50;;;;;;4971557;28;20036;-54
2022/01/18 13:25:05;;;;;;;10.02;4.25;;;13.00;68.50;;;;;;4973553;28;20039;-56
2022/01/18 13:27:49;;;;;;;11.65;4.55;;;12.90;68.50;;;;;;4992128;28;20097;-52
2022/01/18 13:30:22;;;;;;;10.45;4.25;;;12.90;68.40;;;;;;4982137;28;20034;-53
2022/01/18 13:32:49;;;;;;;;;;;12.90;68.00;;;;;;4970092;28;20042;-52
2022/01/18 13:35:20;;;;;;;9.38;4.28;;;12.90;68.60;;;;;;4978832;28;19945;-51
2022/01/18 13:37:47;;;;;;;10.57;3.92;;;12.80;68.20;;;;;;4989448;28;20059;-54
2022/01/18 13:40:17;;;;;;;10.27;4.10;;;12.80;68.30;;;;;;4979391;28;20105;-51
2022/01/18 13:42:45;;;;;;;12.77;3.92;;;12.80;68.00;;;;;;4968772;28;20046;-55
2022/01/18 13:45:16;;;;;;;9.18;3.20;;;12.70;68.10;;;;;;4968124;28;20054;-55
2022/01/18 13:50:47;;;;;;;9.85;4.63;;;12.70;67.30;;;;;;4998143;28;20051;-77
2022/01/18 13:53:20;;;;;;;7.38;2.92;;;12.60;65.70;;;;;;4985116;28;20518;-77
2022/01/18 13:56:04;;;;;;;8.85;2.67;;;12.60;67.10;;;;;;4984386;28;20077;-76
2022/01/18 13:58:34;;;;;;;10.98;3.60;;;12.60;66.50;;;;;;4984531;28;20055;-76
2022/01/18 14:01:14;;;;;;;9.00;2.90;;;12.50;66.50;;;;;;4964584;28;20506;-77
2022/01/18 14:03:44;;;;;;;8.73;2.92;;;12.50;65.90;;;;;;4958703;28;20463;-77
2022/01/18 14:06:14;;;;;;;9.50;3.75;;;12.50;66.60;;;;;;4985755;28;20034;-76
2022/01/18 14:08:49;;;;;;;6.60;3.22;;;12.40;66.50;;;;;;4983132;28;20044;-76
2022/01/18 14:11:19;;;;;;;8.10;3.08;;;12.40;65.40;;;;;;4975929;28;20039;-76
2022/01/18 14:13:46;;;;;;;12.18;3.42;;;12.30;65.80;;;;;;4972352;28;20057;-76
2022/01/18 14:16:28;;;;;;;10.07;4.13;;;12.30;66.00;;;;;;4963304;28;20046;-76
2022/01/18 14:18:57;;;;;;;14.20;4.50;;;12.30;66.00;;;;;;4975103;28;20058;-76
2022/01/18 14:21:33;;;;;;;8.48;3.92;;;12.30;66.70;;;;;;4968257;28;20294;-78
2022/01/18 14:24:07;;;;;;;8.82;4.18;;;12.30;67.20;;;;;;4987984;28;20047;-78
2022/01/18 14:26:35;;;;;;;9.65;3.88;;;12.30;66.80;;;;;;5001073;28;20053;-77
2022/01/18 14:29:04;;;;;;;13.25;4.53;;;12.40;67.50;;;;;;4966977;28;20061;-76